sensor_id;sensor_type;location;lat;lon;timestamp;temperature;humidity
7000;DHT22;3540;53.242;10.408;2023-02-15T00:00:17;3.90;99.90
7000;DHT22;3540;53.242;10.408;2023-02-15T00:02:43;3.90;99.90
7000;DHT22;3540;53.242;10.408;2023-02-15T00:05:09;3.80;99.90
7000;DHT22;3540;53.242;10.408;2023-02-15T00:07:34;3.90;99.90
7000;DHT22;3540;53.242;10.408;2023-02-15T00:10:00;3.90;99.90
7000;DHT22;3540;53.242;10.408;2023-02-15T00:12:26;3.90;99.90
7000;DHT22;3540;53.242;10.408;2023-02-15T00:14:51;4.00;99.90
7000;DHT22;3540;53.242;10.408;2023-02-15T00:17:17;4.00;99.90
7000;DHT22;3540;53.242;10.408;2023-02-15T00:19:42;4.00;99.90
7000;DHT22;3540;53.242;10.408;2023-02-15T00:22:08;3.90;99.90
7000;DHT22;3540;53.242;10.408;2023-02-15T00:24:34;3.90;99.90
7000;DHT22;3540;53.242;10.408;2023-02-15T00:26:59;3.90;99.90
7000;DHT22;3540;53.242;10.408;2023-02-15T00:29:25;3.90;99.90
7000;DHT22;3540;53.242;10.408;2023-02-15T00:31:51;3.90;99.90
7000;DHT22;3540;53.242;10.408;2023-02-15T00:34:22;3.90;99.90
7000;DHT22;3540;53.242;10.408;2023-02-15T00:36:48;3.90;99.90
7000;DHT22;3540;53.242;10.408;2023-02-15T00:39:15;3.90;99.90
7000;DHT22;3540;53.242;10.408;2023-02-15T00:41:41;3.90;99.90
7000;DHT22;3540;53.242;10.408;2023-02-15T00:44:07;3.80;99.90
7000;DHT22;3540;53.242;10.408;2023-02-15T00:46:33;3.80;99.90
7000;DHT22;3540;53.242;10.408;2023-02-15T00:49:02;3.80;99.90
7000;DHT22;3540;53.242;10.408;2023-02-15T00:51:28;3.70;99.90
7000;DHT22;3540;53.242;10.408;2023-02-15T00:53:53;3.70;99.90
7000;DHT22;3540;53.242;10.408;2023-02-15T00:56:19;3.80;99.90
7000;DHT22;3540;53.242;10.408;2023-02-15T00:58:45;3.80;99.90
7000;DHT22;3540;53.242;10.408;2023-02-15T01:01:14;3.70;99.90
7000;DHT22;3540;53.242;10.408;2023-02-15T01:03:39;3.50;99.90
7000;DHT22;3540;53.242;10.408;2023-02-15T01:06:07;3.40;99.90
7000;DHT22;3540;53.242;10.408;2023-02-15T01:08:33;3.40;99.90
7000;DHT22;3540;53.242;10.408;2023-02-15T01:11:04;3.40;99.90
7000;DHT22;3540;53.242;10.408;2023-02-15T01:13:30;3.40;99.90
7000;DHT22;3540;53.242;10.408;2023-02-15T01:15:56;3.40;99.90
7000;DHT22;3540;53.242;10.408;2023-02-15T01:18:22;3.30;99.90
7000;DHT22;3540;53.242;10.408;2023-02-15T01:20:48;3.30;99.90
7000;DHT22;3540;53.242;10.408;2023-02-15T01:23:14;3.20;99.90
7000;DHT22;3540;53.242;10.408;2023-02-15T01:25:40;3.20;99.90
7000;DHT22;3540;53.242;10.408;2023-02-15T01:28:05;3.20;99.90
7000;DHT22;3540;53.242;10.408;2023-02-15T01:30:31;3.30;99.90
7000;DHT22;3540;53.242;10.408;2023-02-15T01:32:57;3.30;99.90
7000;DHT22;3540;53.242;10.408;2023-02-15T01:35:23;3.20;99.90
7000;DHT22;3540;53.242;10.408;2023-02-15T01:37:49;3.20;99.90
7000;DHT22;3540;53.242;10.408;2023-02-15T01:40:17;3.10;99.90
7000;DHT22;3540;53.242;10.408;2023-02-15T01:42:43;3.10;99.90
7000;DHT22;3540;53.242;10.408;2023-02-15T01:45:27;3.10;99.90
7000;DHT22;3540;53.242;10.408;2023-02-15T01:48:21;3.10;99.90
7000;DHT22;3540;53.242;10.408;2023-02-15T01:50:56;3.10;99.90
7000;DHT22;3540;53.242;10.408;2023-02-15T01:53:42;3.20;99.90
7000;DHT22;3540;53.242;10.408;2023-02-15T01:56:15;3.20;99.90
7000;DHT22;3540;53.242;10.408;2023-02-15T01:58:42;3.20;99.90
7000;DHT22;3540;53.242;10.408;2023-02-15T02:01:09;3.10;99.90
7000;DHT22;3540;53.242;10.408;2023-02-15T02:04:05;3.10;99.90
7000;DHT22;3540;53.242;10.408;2023-02-15T02:06:35;3.10;99.90
7000;DHT22;3540;53.242;10.408;2023-02-15T02:09:02;3.00;99.90
7000;DHT22;3540;53.242;10.408;2023-02-15T02:11:28;3.00;99.90
7000;DHT22;3540;53.242;10.408;2023-02-15T02:13:54;3.00;99.90
7000;DHT22;3540;53.242;10.408;2023-02-15T02:27:39;2.90;99.90
7000;DHT22;3540;53.242;10.408;2023-02-15T02:33:18;2.80;99.90
7000;DHT22;3540;53.242;10.408;2023-02-15T02:35:57;2.90;99.90
7000;DHT22;3540;53.242;10.408;2023-02-15T02:41:09;2.80;99.90
7000;DHT22;3540;53.242;10.408;2023-02-15T02:46:48;2.80;99.90
7000;DHT22;3540;53.242;10.408;2023-02-15T02:49:15;2.70;99.90
7000;DHT22;3540;53.242;10.408;2023-02-15T02:51:40;2.70;99.90
7000;DHT22;3540;53.242;10.408;2023-02-15T02:54:06;2.70;99.90
7000;DHT22;3540;53.242;10.408;2023-02-15T03:01:40;2.60;99.90
7000;DHT22;3540;53.242;10.408;2023-02-15T03:04:19;2.60;99.90
7000;DHT22;3540;53.242;10.408;2023-02-15T03:09:26;2.70;99.90
7000;DHT22;3540;53.242;10.408;2023-02-15T03:12:00;2.60;99.90
7000;DHT22;3540;53.242;10.408;2023-02-15T03:14:28;2.60;99.90
7000;DHT22;3540;53.242;10.408;2023-02-15T03:16:54;2.50;99.90
7000;DHT22;3540;53.242;10.408;2023-02-15T03:19:31;2.50;99.90
7000;DHT22;3540;53.242;10.408;2023-02-15T03:22:08;2.50;99.90
7000;DHT22;3540;53.242;10.408;2023-02-15T03:24:46;2.50;99.90
7000;DHT22;3540;53.242;10.408;2023-02-15T03:27:19;2.50;99.90
7000;DHT22;3540;53.242;10.408;2023-02-15T03:29:53;2.50;99.90
7000;DHT22;3540;53.242;10.408;2023-02-15T03:32:20;2.40;99.90
7000;DHT22;3540;53.242;10.408;2023-02-15T03:34:47;2.50;99.90
7000;DHT22;3540;53.242;10.408;2023-02-15T03:39:49;2.30;99.90
7000;DHT22;3540;53.242;10.408;2023-02-15T03:42:22;2.30;99.90
7000;DHT22;3540;53.242;10.408;2023-02-15T03:45:05;2.30;99.90
7000;DHT22;3540;53.242;10.408;2023-02-15T03:47:36;2.30;99.90
7000;DHT22;3540;53.242;10.408;2023-02-15T03:50:09;2.30;99.90
7000;DHT22;3540;53.242;10.408;2023-02-15T03:52:56;2.30;99.90
7000;DHT22;3540;53.242;10.408;2023-02-15T03:55:22;2.20;99.90
7000;DHT22;3540;53.242;10.408;2023-02-15T03:57:49;2.10;99.90
7000;DHT22;3540;53.242;10.408;2023-02-15T04:00:36;2.20;99.90
7000;DHT22;3540;53.242;10.408;2023-02-15T04:05:49;2.00;99.90
7000;DHT22;3540;53.242;10.408;2023-02-15T04:08:15;2.00;99.90
7000;DHT22;3540;53.242;10.408;2023-02-15T04:10:41;1.90;99.90
7000;DHT22;3540;53.242;10.408;2023-02-15T04:13:23;1.90;99.90
7000;DHT22;3540;53.242;10.408;2023-02-15T04:15:50;1.90;99.90
7000;DHT22;3540;53.242;10.408;2023-02-15T04:18:39;1.80;99.90
7000;DHT22;3540;53.242;10.408;2023-02-15T04:21:25;1.80;99.90
7000;DHT22;3540;53.242;10.408;2023-02-15T04:24:10;1.80;99.90
7000;DHT22;3540;53.242;10.408;2023-02-15T04:26:54;1.80;99.90
7000;DHT22;3540;53.242;10.408;2023-02-15T04:29:21;1.80;99.90
7000;DHT22;3540;53.242;10.408;2023-02-15T04:31:48;1.70;99.90
7000;DHT22;3540;53.242;10.408;2023-02-15T04:34:14;1.70;99.90
7000;DHT22;3540;53.242;10.408;2023-02-15T04:36:40;1.70;99.90
7000;DHT22;3540;53.242;10.408;2023-02-15T04:39:07;1.60;99.90
7000;DHT22;3540;53.242;10.408;2023-02-15T04:41:33;1.50;99.90
7000;DHT22;3540;53.242;10.408;2023-02-15T04:43:59;1.50;99.90
7000;DHT22;3540;53.242;10.408;2023-02-15T04:46:26;1.50;99.90
7000;DHT22;3540;53.242;10.408;2023-02-15T04:48:52;1.40;99.90
7000;DHT22;3540;53.242;10.408;2023-02-15T04:51:18;1.40;99.90
7000;DHT22;3540;53.242;10.408;2023-02-15T04:53:43;1.50;99.90
7000;DHT22;3540;53.242;10.408;2023-02-15T04:56:09;1.40;99.90
7000;DHT22;3540;53.242;10.408;2023-02-15T04:58:35;1.50;99.90
7000;DHT22;3540;53.242;10.408;2023-02-15T05:01:02;1.50;99.90
7000;DHT22;3540;53.242;10.408;2023-02-15T05:03:28;1.40;99.90
7000;DHT22;3540;53.242;10.408;2023-02-15T05:05:53;1.30;99.90
7000;DHT22;3540;53.242;10.408;2023-02-15T05:08:19;1.30;99.90
7000;DHT22;3540;53.242;10.408;2023-02-15T05:10:47;1.20;99.90
7000;DHT22;3540;53.242;10.408;2023-02-15T05:13:13;1.20;99.90
7000;DHT22;3540;53.242;10.408;2023-02-15T05:15:39;1.20;99.90
7000;DHT22;3540;53.242;10.408;2023-02-15T05:18:05;1.20;99.90
7000;DHT22;3540;53.242;10.408;2023-02-15T05:20:31;1.10;99.90
7000;DHT22;3540;53.242;10.408;2023-02-15T05:22:57;1.10;99.90
7000;DHT22;3540;53.242;10.408;2023-02-15T05:25:22;1.20;99.90
7000;DHT22;3540;53.242;10.408;2023-02-15T05:28:10;1.30;99.90
7000;DHT22;3540;53.242;10.408;2023-02-15T05:31:07;1.30;99.90
7000;DHT22;3540;53.242;10.408;2023-02-15T05:33:32;1.30;99.90
7000;DHT22;3540;53.242;10.408;2023-02-15T05:35:58;1.30;99.90
7000;DHT22;3540;53.242;10.408;2023-02-15T05:38:24;1.30;99.90
7000;DHT22;3540;53.242;10.408;2023-02-15T05:40:51;1.20;99.90
7000;DHT22;3540;53.242;10.408;2023-02-15T05:43:17;1.20;99.90
7000;DHT22;3540;53.242;10.408;2023-02-15T05:45:50;1.20;99.90
7000;DHT22;3540;53.242;10.408;2023-02-15T05:48:18;1.30;99.90
7000;DHT22;3540;53.242;10.408;2023-02-15T05:50:43;1.30;99.90
7000;DHT22;3540;53.242;10.408;2023-02-15T05:53:09;1.30;99.90
7000;DHT22;3540;53.242;10.408;2023-02-15T05:55:38;1.20;99.90
7000;DHT22;3540;53.242;10.408;2023-02-15T05:58:04;1.20;99.90
7000;DHT22;3540;53.242;10.408;2023-02-15T06:00:29;1.00;99.90
7000;DHT22;3540;53.242;10.408;2023-02-15T06:02:55;1.00;99.90
7000;DHT22;3540;53.242;10.408;2023-02-15T06:05:21;1.00;99.90
7000;DHT22;3540;53.242;10.408;2023-02-15T06:07:46;1.00;99.90
7000;DHT22;3540;53.242;10.408;2023-02-15T06:10:12;1.10;99.90
7000;DHT22;3540;53.242;10.408;2023-02-15T06:12:38;1.10;99.90
7000;DHT22;3540;53.242;10.408;2023-02-15T06:15:04;1.10;99.90
7000;DHT22;3540;53.242;10.408;2023-02-15T06:17:29;1.10;99.90
7000;DHT22;3540;53.242;10.408;2023-02-15T06:19:55;1.10;99.90
7000;DHT22;3540;53.242;10.408;2023-02-15T06:22:21;1.00;99.90
7000;DHT22;3540;53.242;10.408;2023-02-15T06:24:47;0.90;99.90
7000;DHT22;3540;53.242;10.408;2023-02-15T06:27:12;0.80;99.90
7000;DHT22;3540;53.242;10.408;2023-02-15T06:29:38;0.80;99.90
7000;DHT22;3540;53.242;10.408;2023-02-15T06:32:04;0.80;99.90
7000;DHT22;3540;53.242;10.408;2023-02-15T06:34:30;0.90;99.90
7000;DHT22;3540;53.242;10.408;2023-02-15T06:36:56;1.00;99.90
7000;DHT22;3540;53.242;10.408;2023-02-15T06:39:21;1.00;99.90
7000;DHT22;3540;53.242;10.408;2023-02-15T06:41:47;1.00;99.90
7000;DHT22;3540;53.242;10.408;2023-02-15T06:44:13;1.00;99.90
7000;DHT22;3540;53.242;10.408;2023-02-15T06:46:39;1.00;99.90
7000;DHT22;3540;53.242;10.408;2023-02-15T06:49:04;1.00;99.90
7000;DHT22;3540;53.242;10.408;2023-02-15T06:51:30;1.10;99.90
7000;DHT22;3540;53.242;10.408;2023-02-15T06:53:56;1.10;99.90
7000;DHT22;3540;53.242;10.408;2023-02-15T06:56:21;1.10;99.90
7000;DHT22;3540;53.242;10.408;2023-02-15T06:58:47;1.10;99.90
7000;DHT22;3540;53.242;10.408;2023-02-15T07:01:15;1.20;99.90
7000;DHT22;3540;53.242;10.408;2023-02-15T07:03:41;1.20;99.90
7000;DHT22;3540;53.242;10.408;2023-02-15T07:06:07;1.10;99.90
7000;DHT22;3540;53.242;10.408;2023-02-15T07:08:35;1.10;99.90
7000;DHT22;3540;53.242;10.408;2023-02-15T07:11:01;1.20;99.90
7000;DHT22;3540;53.242;10.408;2023-02-15T07:13:46;1.10;99.90
7000;DHT22;3540;53.242;10.408;2023-02-15T07:16:12;1.20;99.90
7000;DHT22;3540;53.242;10.408;2023-02-15T07:18:39;1.10;99.90
7000;DHT22;3540;53.242;10.408;2023-02-15T07:21:06;1.10;99.90
7000;DHT22;3540;53.242;10.408;2023-02-15T07:23:35;1.10;99.90
7000;DHT22;3540;53.242;10.408;2023-02-15T07:26:02;1.00;99.90
7000;DHT22;3540;53.242;10.408;2023-02-15T07:28:28;1.10;99.90
7000;DHT22;3540;53.242;10.408;2023-02-15T07:30:53;1.20;99.90
7000;DHT22;3540;53.242;10.408;2023-02-15T07:33:19;1.20;99.90
7000;DHT22;3540;53.242;10.408;2023-02-15T07:35:58;1.20;99.90
7000;DHT22;3540;53.242;10.408;2023-02-15T07:38:25;1.30;99.90
7000;DHT22;3540;53.242;10.408;2023-02-15T07:40:51;1.20;99.90
7000;DHT22;3540;53.242;10.408;2023-02-15T07:43:17;1.20;99.90
7000;DHT22;3540;53.242;10.408;2023-02-15T07:45:43;1.20;99.90
7000;DHT22;3540;53.242;10.408;2023-02-15T07:48:09;1.20;99.90
7000;DHT22;3540;53.242;10.408;2023-02-15T07:50:34;1.10;99.90
7000;DHT22;3540;53.242;10.408;2023-02-15T07:53:03;1.10;99.90
7000;DHT22;3540;53.242;10.408;2023-02-15T07:55:29;1.10;99.90
7000;DHT22;3540;53.242;10.408;2023-02-15T07:57:55;1.20;99.90
7000;DHT22;3540;53.242;10.408;2023-02-15T08:00:22;1.40;99.90
7000;DHT22;3540;53.242;10.408;2023-02-15T08:02:53;1.40;99.90
7000;DHT22;3540;53.242;10.408;2023-02-15T08:05:37;1.50;99.90
7000;DHT22;3540;53.242;10.408;2023-02-15T08:08:03;1.30;99.90
7000;DHT22;3540;53.242;10.408;2023-02-15T08:10:29;1.30;99.90
7000;DHT22;3540;53.242;10.408;2023-02-15T08:13:13;1.50;99.90
7000;DHT22;3540;53.242;10.408;2023-02-15T08:15:38;1.50;99.90
7000;DHT22;3540;53.242;10.408;2023-02-15T08:18:04;1.60;99.90
7000;DHT22;3540;53.242;10.408;2023-02-15T08:20:30;1.60;99.90
7000;DHT22;3540;53.242;10.408;2023-02-15T08:22:56;1.70;99.90
7000;DHT22;3540;53.242;10.408;2023-02-15T08:25:21;1.80;99.90
7000;DHT22;3540;53.242;10.408;2023-02-15T08:27:47;1.80;99.90
7000;DHT22;3540;53.242;10.408;2023-02-15T08:30:13;1.90;99.90
7000;DHT22;3540;53.242;10.408;2023-02-15T08:32:39;1.90;99.90
7000;DHT22;3540;53.242;10.408;2023-02-15T08:35:05;1.90;99.90
7000;DHT22;3540;53.242;10.408;2023-02-15T08:37:31;1.90;99.90
7000;DHT22;3540;53.242;10.408;2023-02-15T08:39:56;2.00;99.90
7000;DHT22;3540;53.242;10.408;2023-02-15T08:42:22;2.10;99.90
7000;DHT22;3540;53.242;10.408;2023-02-15T08:44:48;2.20;99.90
7000;DHT22;3540;53.242;10.408;2023-02-15T08:47:15;2.40;99.90
7000;DHT22;3540;53.242;10.408;2023-02-15T08:49:41;2.40;99.90
7000;DHT22;3540;53.242;10.408;2023-02-15T08:52:07;2.50;99.90
7000;DHT22;3540;53.242;10.408;2023-02-15T08:54:32;2.30;99.90
7000;DHT22;3540;53.242;10.408;2023-02-15T08:56:58;2.40;99.90
7000;DHT22;3540;53.242;10.408;2023-02-15T08:59:24;2.60;99.90
7000;DHT22;3540;53.242;10.408;2023-02-15T09:01:52;2.70;99.90
7000;DHT22;3540;53.242;10.408;2023-02-15T09:04:18;2.70;99.90
7000;DHT22;3540;53.242;10.408;2023-02-15T09:06:45;2.80;99.90
7000;DHT22;3540;53.242;10.408;2023-02-15T09:09:11;2.90;99.90
7000;DHT22;3540;53.242;10.408;2023-02-15T09:11:39;3.00;99.90
7000;DHT22;3540;53.242;10.408;2023-02-15T09:14:08;2.80;99.90
7000;DHT22;3540;53.242;10.408;2023-02-15T09:16:36;2.80;99.90
7000;DHT22;3540;53.242;10.408;2023-02-15T09:19:02;3.00;99.90
7000;DHT22;3540;53.242;10.408;2023-02-15T09:21:35;3.10;99.90
7000;DHT22;3540;53.242;10.408;2023-02-15T09:24:08;3.00;99.90
7000;DHT22;3540;53.242;10.408;2023-02-15T09:26:37;3.10;99.90
7000;DHT22;3540;53.242;10.408;2023-02-15T09:29:03;3.00;99.90
7000;DHT22;3540;53.242;10.408;2023-02-15T09:31:31;2.90;99.90
7000;DHT22;3540;53.242;10.408;2023-02-15T09:33:59;2.90;99.90
7000;DHT22;3540;53.242;10.408;2023-02-15T09:36:37;2.90;99.90
7000;DHT22;3540;53.242;10.408;2023-02-15T09:39:08;3.00;99.90
7000;DHT22;3540;53.242;10.408;2023-02-15T10:01:47;3.60;99.90
7000;DHT22;3540;53.242;10.408;2023-02-15T10:10:02;3.70;99.90
7000;DHT22;3540;53.242;10.408;2023-02-15T10:18:29;4.00;99.90
7000;DHT22;3540;53.242;10.408;2023-02-15T10:21:10;4.10;99.90
7000;DHT22;3540;53.242;10.408;2023-02-15T10:26:44;4.20;99.90
7000;DHT22;3540;53.242;10.408;2023-02-15T10:31:57;4.10;99.90
7000;DHT22;3540;53.242;10.408;2023-02-15T10:34:39;4.20;99.90
7000;DHT22;3540;53.242;10.408;2023-02-15T10:53:45;4.60;99.90
7000;DHT22;3540;53.242;10.408;2023-02-15T10:56:26;4.70;99.90
7000;DHT22;3540;53.242;10.408;2023-02-15T11:02:07;5.00;99.90
7000;DHT22;3540;53.242;10.408;2023-02-15T11:07:21;4.90;99.90
7000;DHT22;3540;53.242;10.408;2023-02-15T11:12:44;5.00;99.90
7000;DHT22;3540;53.242;10.408;2023-02-15T11:21:22;5.10;99.90
7000;DHT22;3540;53.242;10.408;2023-02-15T11:23:50;5.10;99.90
7000;DHT22;3540;53.242;10.408;2023-02-15T11:26:33;5.00;99.90
7000;DHT22;3540;53.242;10.408;2023-02-15T11:29:06;5.20;99.90
7000;DHT22;3540;53.242;10.408;2023-02-15T11:31:49;5.30;99.90
7000;DHT22;3540;53.242;10.408;2023-02-15T11:36:49;5.40;99.90
7000;DHT22;3540;53.242;10.408;2023-02-15T11:39:17;5.70;99.90
7000;DHT22;3540;53.242;10.408;2023-02-15T11:41:56;5.80;99.90
7000;DHT22;3540;53.242;10.408;2023-02-15T11:44:26;6.00;99.90
7000;DHT22;3540;53.242;10.408;2023-02-15T11:46:53;6.20;99.90
7000;DHT22;3540;53.242;10.408;2023-02-15T11:49:31;6.10;99.90
7000;DHT22;3540;53.242;10.408;2023-02-15T11:51:59;6.20;99.90
7000;DHT22;3540;53.242;10.408;2023-02-15T11:54:31;5.70;99.90
7000;DHT22;3540;53.242;10.408;2023-02-15T11:57:30;5.50;99.90
7000;DHT22;3540;53.242;10.408;2023-02-15T12:00:28;5.90;99.90
7000;DHT22;3540;53.242;10.408;2023-02-15T12:02:57;6.30;99.90
7000;DHT22;3540;53.242;10.408;2023-02-15T12:05:24;6.40;99.90
7000;DHT22;3540;53.242;10.408;2023-02-15T12:08:37;6.50;99.90
7000;DHT22;3540;53.242;10.408;2023-02-15T12:11:07;6.60;99.90
7000;DHT22;3540;53.242;10.408;2023-02-15T12:14:03;6.60;99.90
7000;DHT22;3540;53.242;10.408;2023-02-15T12:16:45;6.70;99.90
7000;DHT22;3540;53.242;10.408;2023-02-15T12:19:40;6.90;99.90
7000;DHT22;3540;53.242;10.408;2023-02-15T12:22:25;7.00;99.90
7000;DHT22;3540;53.242;10.408;2023-02-15T12:24:54;7.30;99.90
7000;DHT22;3540;53.242;10.408;2023-02-15T12:27:27;7.40;99.90
7000;DHT22;3540;53.242;10.408;2023-02-15T12:30:00;7.60;99.90
7000;DHT22;3540;53.242;10.408;2023-02-15T12:32:31;7.60;99.90
7000;DHT22;3540;53.242;10.408;2023-02-15T12:37:33;7.20;99.90
7000;DHT22;3540;53.242;10.408;2023-02-15T12:40:01;7.10;99.90
7000;DHT22;3540;53.242;10.408;2023-02-15T12:42:40;6.90;99.90
7000;DHT22;3540;53.242;10.408;2023-02-15T12:45:31;6.70;99.90
7000;DHT22;3540;53.242;10.408;2023-02-15T12:48:18;7.10;99.90
7000;DHT22;3540;53.242;10.408;2023-02-15T12:51:07;7.40;99.90
7000;DHT22;3540;53.242;10.408;2023-02-15T12:53:34;7.80;99.90
7000;DHT22;3540;53.242;10.408;2023-02-15T12:56:03;7.70;99.90
7000;DHT22;3540;53.242;10.408;2023-02-15T12:58:30;7.60;99.90
7000;DHT22;3540;53.242;10.408;2023-02-15T13:03:35;8.00;99.90
7000;DHT22;3540;53.242;10.408;2023-02-15T13:06:02;8.10;99.90
7000;DHT22;3540;53.242;10.408;2023-02-15T13:08:35;8.30;99.90
7000;DHT22;3540;53.242;10.408;2023-02-15T13:11:10;8.40;99.90
7000;DHT22;3540;53.242;10.408;2023-02-15T13:16:16;8.90;99.90
7000;DHT22;3540;53.242;10.408;2023-02-15T13:18:51;8.70;99.90
7000;DHT22;3540;53.242;10.408;2023-02-15T13:21:37;8.70;99.90
7000;DHT22;3540;53.242;10.408;2023-02-15T13:24:15;8.70;99.90
7000;DHT22;3540;53.242;10.408;2023-02-15T13:26:43;8.80;99.90
7000;DHT22;3540;53.242;10.408;2023-02-15T13:29:30;8.80;99.90
7000;DHT22;3540;53.242;10.408;2023-02-15T13:32:07;8.90;99.90
7000;DHT22;3540;53.242;10.408;2023-02-15T13:34:38;9.00;99.90
7000;DHT22;3540;53.242;10.408;2023-02-15T13:39:44;9.30;99.90
7000;DHT22;3540;53.242;10.408;2023-02-15T13:42:18;9.20;99.90
7000;DHT22;3540;53.242;10.408;2023-02-15T13:45:02;9.40;99.90
7000;DHT22;3540;53.242;10.408;2023-02-15T13:56:15;8.90;99.90
7000;DHT22;3540;53.242;10.408;2023-02-15T14:01:46;9.20;99.90
7000;DHT22;3540;53.242;10.408;2023-02-15T14:07:33;9.20;99.90
7000;DHT22;3540;53.242;10.408;2023-02-15T14:21:54;8.90;99.90
7000;DHT22;3540;53.242;10.408;2023-02-15T14:24:33;9.00;99.90
7000;DHT22;3540;53.242;10.408;2023-02-15T14:27:18;9.00;99.90
7000;DHT22;3540;53.242;10.408;2023-02-15T14:29:56;8.90;99.90
7000;DHT22;3540;53.242;10.408;2023-02-15T14:32:27;8.50;99.90
7000;DHT22;3540;53.242;10.408;2023-02-15T14:35:03;8.50;99.90
7000;DHT22;3540;53.242;10.408;2023-02-15T14:46:18;8.60;99.90
7000;DHT22;3540;53.242;10.408;2023-02-15T14:48:49;8.40;99.90
7000;DHT22;3540;53.242;10.408;2023-02-15T14:54:03;8.60;99.90
7000;DHT22;3540;53.242;10.408;2023-02-15T14:56:29;8.50;99.90
7000;DHT22;3540;53.242;10.408;2023-02-15T14:58:57;8.50;99.90
7000;DHT22;3540;53.242;10.408;2023-02-15T15:01:31;8.50;99.90
7000;DHT22;3540;53.242;10.408;2023-02-15T15:04:26;8.50;99.90
7000;DHT22;3540;53.242;10.408;2023-02-15T15:07:21;8.50;99.90
7000;DHT22;3540;53.242;10.408;2023-02-15T15:14:52;8.40;99.90
7000;DHT22;3540;53.242;10.408;2023-02-15T15:20:49;8.30;99.90
7000;DHT22;3540;53.242;10.408;2023-02-15T15:28:06;8.20;99.90
7000;DHT22;3540;53.242;10.408;2023-02-15T15:33:20;8.10;99.90
7000;DHT22;3540;53.242;10.408;2023-02-15T15:39:02;8.00;99.90
7000;DHT22;3540;53.242;10.408;2023-02-15T15:41:42;8.00;99.90
7000;DHT22;3540;53.242;10.408;2023-02-15T15:49:38;7.80;99.90
7000;DHT22;3540;53.242;10.408;2023-02-15T15:52:15;7.80;99.90
7000;DHT22;3540;53.242;10.408;2023-02-15T15:54:43;7.70;99.90
7000;DHT22;3540;53.242;10.408;2023-02-15T15:59:49;7.60;99.90
7000;DHT22;3540;53.242;10.408;2023-02-15T16:02:16;7.50;99.90
7000;DHT22;3540;53.242;10.408;2023-02-15T16:04:43;7.50;99.90
7000;DHT22;3540;53.242;10.408;2023-02-15T16:12:29;7.20;99.90
7000;DHT22;3540;53.242;10.408;2023-02-15T16:14:56;7.20;99.90
7000;DHT22;3540;53.242;10.408;2023-02-15T16:17:24;7.10;99.90
7000;DHT22;3540;53.242;10.408;2023-02-15T16:19:51;7.00;99.90
7000;DHT22;3540;53.242;10.408;2023-02-15T16:22:23;6.90;99.90
7000;DHT22;3540;53.242;10.408;2023-02-15T16:27:31;6.90;99.90
7000;DHT22;3540;53.242;10.408;2023-02-15T16:29:58;6.80;99.90
7000;DHT22;3540;53.242;10.408;2023-02-15T16:32:27;6.70;99.90
7000;DHT22;3540;53.242;10.408;2023-02-15T16:35:01;6.60;99.90
7000;DHT22;3540;53.242;10.408;2023-02-15T16:37:34;6.60;99.90
7000;DHT22;3540;53.242;10.408;2023-02-15T16:40:00;6.50;99.90
7000;DHT22;3540;53.242;10.408;2023-02-15T16:42:26;6.50;99.90
7000;DHT22;3540;53.242;10.408;2023-02-15T16:45:08;6.40;99.90
7000;DHT22;3540;53.242;10.408;2023-02-15T16:47:41;6.30;99.90
7000;DHT22;3540;53.242;10.408;2023-02-15T16:50:18;6.30;99.90
7000;DHT22;3540;53.242;10.408;2023-02-15T16:52:45;6.20;99.90
7000;DHT22;3540;53.242;10.408;2023-02-15T16:55:23;6.20;99.90
7000;DHT22;3540;53.242;10.408;2023-02-15T16:57:49;6.10;99.90
7000;DHT22;3540;53.242;10.408;2023-02-15T17:00:21;6.10;99.90
7000;DHT22;3540;53.242;10.408;2023-02-15T17:03:04;6.00;99.90
7000;DHT22;3540;53.242;10.408;2023-02-15T17:05:47;6.00;99.90
7000;DHT22;3540;53.242;10.408;2023-02-15T17:08:17;5.90;99.90
7000;DHT22;3540;53.242;10.408;2023-02-15T17:11:03;5.90;99.90
7000;DHT22;3540;53.242;10.408;2023-02-15T17:13:30;5.80;99.90
7000;DHT22;3540;53.242;10.408;2023-02-15T17:21:19;5.70;99.90
7000;DHT22;3540;53.242;10.408;2023-02-15T17:23:48;5.60;99.90
7000;DHT22;3540;53.242;10.408;2023-02-15T17:28:53;5.50;99.90
7000;DHT22;3540;53.242;10.408;2023-02-15T17:31:20;5.50;99.90
7000;DHT22;3540;53.242;10.408;2023-02-15T17:33:47;5.40;99.90
7000;DHT22;3540;53.242;10.408;2023-02-15T17:36:20;5.30;99.90
7000;DHT22;3540;53.242;10.408;2023-02-15T17:41:29;5.20;99.90
7000;DHT22;3540;53.242;10.408;2023-02-15T17:43:55;5.20;99.90
7000;DHT22;3540;53.242;10.408;2023-02-15T17:46:21;5.10;99.90
7000;DHT22;3540;53.242;10.408;2023-02-15T17:48:51;5.10;99.90
7000;DHT22;3540;53.242;10.408;2023-02-15T17:51:18;5.00;99.90
7000;DHT22;3540;53.242;10.408;2023-02-15T17:53:45;5.00;99.90
7000;DHT22;3540;53.242;10.408;2023-02-15T17:56:35;4.90;99.90
7000;DHT22;3540;53.242;10.408;2023-02-15T17:59:02;4.90;99.90
7000;DHT22;3540;53.242;10.408;2023-02-15T18:01:32;4.90;99.90
7000;DHT22;3540;53.242;10.408;2023-02-15T18:04:17;4.80;99.90
7000;DHT22;3540;53.242;10.408;2023-02-15T18:07:02;4.80;99.90
7000;DHT22;3540;53.242;10.408;2023-02-15T18:09:46;4.80;99.90
7000;DHT22;3540;53.242;10.408;2023-02-15T18:12:32;4.80;99.90
7000;DHT22;3540;53.242;10.408;2023-02-15T18:14:59;4.80;99.90
7000;DHT22;3540;53.242;10.408;2023-02-15T18:22:43;4.70;99.90
7000;DHT22;3540;53.242;10.408;2023-02-15T18:25:19;4.70;99.90
7000;DHT22;3540;53.242;10.408;2023-02-15T18:27:46;4.70;99.90
7000;DHT22;3540;53.242;10.408;2023-02-15T18:30:21;4.70;99.90
7000;DHT22;3540;53.242;10.408;2023-02-15T18:32:49;4.70;99.90
7000;DHT22;3540;53.242;10.408;2023-02-15T18:35:18;4.70;99.90
7000;DHT22;3540;53.242;10.408;2023-02-15T18:37:44;4.70;99.90
7000;DHT22;3540;53.242;10.408;2023-02-15T18:40:21;4.70;99.90
7000;DHT22;3540;53.242;10.408;2023-02-15T18:42:47;4.70;99.90
7000;DHT22;3540;53.242;10.408;2023-02-15T18:47:48;4.70;99.90
7000;DHT22;3540;53.242;10.408;2023-02-15T18:50:14;4.60;99.90
7000;DHT22;3540;53.242;10.408;2023-02-15T18:52:43;4.60;99.90
7000;DHT22;3540;53.242;10.408;2023-02-15T18:55:22;4.60;99.90
7000;DHT22;3540;53.242;10.408;2023-02-15T18:57:49;4.60;99.90
7000;DHT22;3540;53.242;10.408;2023-02-15T19:00:23;4.50;99.90
7000;DHT22;3540;53.242;10.408;2023-02-15T19:02:56;4.50;99.90
7000;DHT22;3540;53.242;10.408;2023-02-15T19:05:23;4.50;99.90
7000;DHT22;3540;53.242;10.408;2023-02-15T19:07:50;4.50;99.90
7000;DHT22;3540;53.242;10.408;2023-02-15T19:10:27;4.40;99.90
7000;DHT22;3540;53.242;10.408;2023-02-15T19:12:54;4.30;99.90
7000;DHT22;3540;53.242;10.408;2023-02-15T19:15:26;4.20;99.90
7000;DHT22;3540;53.242;10.408;2023-02-15T19:17:52;4.20;99.90
7000;DHT22;3540;53.242;10.408;2023-02-15T19:20:21;4.10;99.90
7000;DHT22;3540;53.242;10.408;2023-02-15T19:22:49;4.00;99.90
7000;DHT22;3540;53.242;10.408;2023-02-15T19:25:29;4.00;99.90
7000;DHT22;3540;53.242;10.408;2023-02-15T19:27:56;3.90;99.90
7000;DHT22;3540;53.242;10.408;2023-02-15T19:30:30;3.90;99.90
7000;DHT22;3540;53.242;10.408;2023-02-15T19:32:57;3.80;99.90
7000;DHT22;3540;53.242;10.408;2023-02-15T19:35:26;3.80;99.90
7000;DHT22;3540;53.242;10.408;2023-02-15T19:37:54;3.80;99.90
7000;DHT22;3540;53.242;10.408;2023-02-15T19:40:29;3.70;99.90
7000;DHT22;3540;53.242;10.408;2023-02-15T19:42:55;3.70;99.90
7000;DHT22;3540;53.242;10.408;2023-02-15T19:45:23;3.70;99.90
7000;DHT22;3540;53.242;10.408;2023-02-15T19:47:49;3.70;99.90
7000;DHT22;3540;53.242;10.408;2023-02-15T19:50:31;3.60;99.90